CheckWX is a tool to help pilots better visualize weather data.  It is not intended as a substitute for an official pre-flight weather briefing.

09:13:20 UTC

KLRF METAR
Little Rock AFB Airport
Jacksonville, Arkansas, USA
Current

17 mins ago

KLRF 250856Z AUTO 00000KT 10SM FEW075 BKN100 BKN190 23/23 A2994 RMK AO2 SLP139 T02340234 58009 $
Observed
Aug-25 @ 08:56 UTC
Visibility
10 SM
Flight Rules
VFR
Cloud Levels
  • Few at 7,500' AGL
  • Broken at 10,000' AGL
  • Broken at 19,000' AGL
Temperature
23°C / 73°F
Dewpoint
23°C / 73°F
Humidity
100%
Altimeter
29.94" Hg
Pressure
1013.92 hPa
Previous

1 hour ago

KLRF 250800Z AUTO 00000KT 10SM FEW007 SCT029 BKN048 OVC070 24/24 A2996 RMK AO2 SLP145 $
Observed
Aug-25 @ 08:00 UTC
Visibility
10 SM
Flight Rules
VFR
Cloud Levels
  • Few at 700' AGL
  • Scattered at 2,900' AGL
  • Broken at 4,800' AGL
  • Overcast at 7,000' AGL
Temperature
24°C / 75°F
Dewpoint
24°C / 75°F
Humidity
100%
Altimeter
29.96" Hg
Pressure
1014.52 hPa
Previous

1 hour ago

KLRF 250754Z AUTO 00000KT 10SM SCT008 BKN029 BKN047 OVC070 24/24 A2996 RMK AO2 CIG 007V029 SLP145 $
Observed
Aug-25 @ 07:54 UTC
Visibility
10 SM
Flight Rules
MVFR
Cloud Levels
  • Scattered at 800' AGL
  • Broken at 2,900' AGL
  • Broken at 4,700' AGL
  • Overcast at 7,000' AGL
Temperature
24°C / 75°F
Dewpoint
24°C / 75°F
Humidity
100%
Altimeter
29.96" Hg
Pressure
1014.52 hPa